Tuesday, November 21, 2017, 10:42 AM EST
Back to Local

KBTV, Burlington International

Location: South Burlington, VT, United States Lat: 44.467
Local Time: 10:42 AM EST (15:42 GMT) Lon: -73.15
Time Zone: US/Eastern Elev: 334 ft

Show me the last for .
Show Decoded

2017-11-21 09:54 METAR KBTV 211454Z 18024G38KT 10SM FEW100 FEW200 06/M03 A2985 RMK AO2 PK WND
                 19038/1446 SLP113 ACSL N T00611033 58022 =
2017-11-21 08:54 METAR KBTV 211354Z 18012G27KT 10SM FEW060 FEW200 04/M03 A2990 RMK AO2 PK WND
                 19029/1329 SLP128 T00441033 =
2017-11-21 07:54 METAR KBTV 211254Z 18016G23KT 10SM FEW050 SCT200 04/M04 A2991 RMK AO2 SLP132
                 T00391039 =
2017-11-21 06:54 METAR KBTV 211154Z 18013G19KT 10SM FEW050 SCT200 02/M03 A2992 RMK AO2 SLP136
                 4/001 70006 T00221033 10022 21022 56010 =
2017-11-21 05:54 METAR KBTV 211054Z 19012G20KT 10SM SCT050 02/M03 A2993 RMK AO2 SLP140 T00171033
                 =
2017-11-21 04:54 METAR KBTV 210954Z 18010KT 10SM CLR 02/M03 A2993 RMK AO2 SLP140 T00171028 =
2017-11-21 03:54 METAR KBTV 210854Z 19007KT 10SM CLR 01/M02 A2995 RMK AO2 SLP147 T00111022 56008
                 =
2017-11-21 02:54 METAR KBTV 210754Z 19009KT 10SM OVC046 01/M02 A2995 RMK AO2 SLP147 T00111017 =
2017-11-21 01:54 METAR KBTV 210654Z 00000KT 10SM OVC042 M02/M04 A2997 RMK AO2 SLP153 T10171044 =
2017-11-21 00:54 METAR KBTV 210554Z 15003KT 10SM SCT015 OVC031 M02/M05 A2998 RMK AO2 SLP155
                 T10221050 11022 21033 58008 =
2017-11-21 00:10 METAR KBTV 210510Z 00000KT 10SM OVC029 M02/M06 A2999 RMK AO2 T10221061 =
2017-11-20 23:54 METAR KBTV 210454Z 00000KT 10SM OVC030 M02/M06 A3000 RMK AO2 SLP162 LAST
                 T10221061 410061039 =
2017-11-20 23:52 METAR KBTV 210452Z 00000KT 10SM OVC030 M02/M06 A3000 RMK AO2 LAST =
2017-11-20 22:54 METAR KBTV 210354Z 00000KT 10SM OVC028 M03/M07 A3000 RMK AO2 SLP163 T10281067 =
2017-11-20 21:54 METAR KBTV 210254Z 10003KT 10SM OVC033 M03/M07 A3001 RMK AO2 SLP166 T10331067
                 50001 =
2017-11-20 20:54 METAR KBTV 210154Z 10006KT 10SM OVC034 M03/M07 A3001 RMK AO2 SLP167 T10331072 =
2017-11-20 19:54 METAR KBTV 210054Z 09004KT 10SM OVC043 M03/M07 A3001 RMK AO2 SLP167 T10331067 =
2017-11-20 18:54 METAR KBTV 202354Z 09005KT 10SM BKN044 OVC060 M03/M06 A3000 RMK AO2 SLP165 4/001
                 60005 T10331061 11033 21039 51025 =
2017-11-20 17:54 METAR KBTV 202254Z 00000KT 10SM OVC050 M03/M06 A2998 RMK AO2 SNE15 SLP157 P0000
                 T10331061 =
2017-11-20 16:54 METAR KBTV 202154Z 14003KT 5SM -SN BR BKN036 OVC060 M03/M06 A2995 RMK AO2 SLP148
                 P0001 T10331056 =
2017-11-20 16:28 METAR KBTV 202128Z 09004KT 4SM -SN BR OVC028 M03/M06 A2994 RMK AO2 P0000
                 T10331056 =
2017-11-20 16:17 METAR KBTV 202117Z 09004KT 2SM -SN BR SCT024 BKN030 OVC036 M03/M06 A2994 RMK AO2
                 P0000 T10331056 =
2017-11-20 15:54 METAR KBTV 202054Z 06003KT 8SM -SN FEW029 BKN040 OVC055 M03/M06 A2993 RMK AO2
                 SLP139 P0000 60004 T10331056 53013 =
2017-11-20 15:20 METAR KBTV 202020Z 08004KT 4SM -SN BR BKN034 OVC046 M03/M06 A2991 RMK AO2 P0000
                 T10331056 =
2017-11-20 15:06 METAR KBTV 202006Z 00000KT 4SM -SN BKN029 OVC037 M03/M06 A2991 RMK AO2 P0000
                 T10331061 =
2017-11-20 14:54 METAR KBTV 201954Z 00000KT 2SM -SN BKN027 OVC036 M03/M06 A2990 RMK AO2 SLP131
                 P0001 T10331061 =
2017-11-20 13:54 METAR KBTV 201854Z 10003KT 1 1/4SM R15/4500V6000FT -SN OVC022 M03/M06 A2989 RMK
                 AO2 SLP126 P0003 T10331061 =
2017-11-20 13:51 METAR KBTV 201851Z 08003KT 1 1/4SM R15/4500V6000FT -SN SCT018 OVC025 M03/M06
                 A2989 RMK AO2 P0003 =
2017-11-20 13:34 METAR KBTV 201834Z 08006KT 3/4SM R15/5500VP6000FT -SN BR BKN019 OVC027 M04/M06
                 A2988 RMK AO2 P0003 T10391061 =
2017-11-20 13:19 METAR KBTV 201819Z 07005KT 1 1/4SM -SN BR SCT018 OVC027 M03/M06 A2988 RMK AO2
                 P0002 T10331056 =
2017-11-20 12:54 METAR KBTV 201754Z 09004KT 1/2SM R15/P6000FT SN BKN017 OVC025 M03/M06 A2988 RMK
                 AO2 SNB13 SLP124 P0001 60001 T10331061 11017 21039 56002 =
2017-11-20 12:51 METAR KBTV 201751Z 09003KT 1/2SM R15/P6000FT SN BKN017 OVC027 M03/M07 A2988 RMK
                 AO2 SNB13 P0001 =
2017-11-20 12:43 METAR KBTV 201743Z 02005KT 1SM R15/6000VP6000FT -SN BKN019 OVC029 M03/M07 A2988
                 RMK AO2 SNB13 P0000 T10281072 =
2017-11-20 12:35 METAR KBTV 201735Z 36004KT 1 1/2SM -SN BKN022 OVC029 M03/M08 A2988 RMK AO2 SNB13
                 P0000 T10281078 =
2017-11-20 12:24 METAR KBTV 201724Z 34007KT 2 1/2SM -SN OVC028 M02/M08 A2988 RMK AO2 TWR VIS 4
                 VIS 1 1/2V3 SNB13 P0000 T10221083 =
2017-11-20 11:54 METAR KBTV 201654Z VRB04KT 10SM BKN036 OVC043 M02/M11 A2987 RMK AO2 SLP121
                 T10221106 =
2017-11-20 10:54 METAR KBTV 201554Z VRB05KT 10SM BKN042 OVC085 M03/M11 A2989 RMK AO2 SLP126
                 T10281111 =

Support USWX by starting your Amazon purchase here.